createdAt,value
2018-12-08T00:01:40.621Z,97123.19
2018-12-08T00:03:21.540Z,97119.52
2018-12-08T00:05:10.139Z,97124.97
2018-12-08T00:06:53.815Z,97122.08
2018-12-08T00:08:32.212Z,97124.59
2018-12-08T00:10:09.602Z,97126.34
2018-12-08T00:11:49.799Z,97125.19
2018-12-08T00:13:33.205Z,97131.56
2018-12-08T00:15:09.620Z,97131.60
2018-12-08T00:16:46.406Z,97142.39
2018-12-08T00:18:23.317Z,97132.73
2018-12-08T00:19:59.831Z,97142.20
2018-12-08T00:21:35.924Z,97146.25
2018-12-08T00:23:11.318Z,97150.70
2018-12-08T00:24:51.789Z,97157.47
2018-12-08T00:26:27.223Z,97148.41
2018-12-08T00:28:04.254Z,97149.34
2018-12-08T00:29:40.173Z,97164.42
2018-12-08T00:31:26.538Z,97159.42
2018-12-08T00:33:02.860Z,97164.06
2018-12-08T00:34:38.686Z,97160.17
2018-12-08T00:36:15.248Z,97165.58
2018-12-08T00:37:54.629Z,97168.86
2018-12-08T00:39:30.123Z,97174.08
2018-12-08T00:41:05.457Z,97174.08
2018-12-08T00:42:40.943Z,97167.13
2018-12-08T00:44:16.109Z,97172.73
2018-12-08T00:45:52.306Z,97176.78
2018-12-08T00:47:27.756Z,97179.10
2018-12-08T00:49:03.047Z,97181.81
2018-12-08T00:50:39.860Z,97179.49
2018-12-08T00:52:17.722Z,97189.34
2018-12-08T00:53:56.735Z,97175.82
2018-12-08T00:55:32.239Z,97176.59
2018-12-08T00:57:09.358Z,97190.89
2018-12-08T00:58:45.326Z,97186.64
2018-12-08T01:00:21.590Z,97179.11
2018-12-08T01:01:58.572Z,97189.34
2018-12-08T01:03:37.537Z,97187.03
2018-12-08T01:05:14.565Z,97197.89
2018-12-08T01:06:52.627Z,97213.19
2018-12-08T01:08:31.165Z,97239.48
2018-12-08T01:10:09.741Z,97320.41
2018-12-08T01:11:53.244Z,98249.70
2018-12-08T01:13:39.361Z,98492.28
2018-12-08T01:15:20.339Z,98546.94
2018-12-08T01:16:59.554Z,98627.64
2018-12-08T01:18:41.475Z,98663.37
2018-12-08T01:20:23.533Z,98682.39
2018-12-08T01:22:08.633Z,98719.34
2018-12-08T01:23:43.906Z,98739.25
2018-12-08T01:25:23.727Z,98763.69
2018-12-08T01:26:58.952Z,98772.45
2018-12-08T01:28:34.657Z,98789.69
2018-12-08T01:30:14.119Z,98800.86
2018-12-08T01:31:49.678Z,98814.83
2018-12-08T01:33:27.007Z,98820.36
2018-12-08T01:35:04.599Z,98831.06
2018-12-08T01:36:41.279Z,98846.45
2018-12-08T01:38:17.531Z,98869.98
2018-12-08T01:39:53.360Z,98883.95
2018-12-08T01:41:28.972Z,98893.42
2018-12-08T01:43:04.243Z,98905.16
2018-12-08T01:44:45.828Z,98920.70
2018-12-08T01:46:22.799Z,98929.61
2018-12-08T01:47:58.236Z,98945.34
2018-12-08T01:49:34.192Z,98945.91
2018-12-08T01:51:10.056Z,98960.23
2018-12-08T01:52:49.964Z,98973.20
2018-12-08T01:54:27.320Z,98986.27
2018-12-08T01:56:03.399Z,99000.81
2018-12-08T01:57:39.744Z,99006.34
2018-12-08T01:59:16.047Z,99016.60
2018-12-08T02:00:52.756Z,99024.95
2018-12-08T02:02:28.363Z,99033.06
2018-12-08T02:04:03.754Z,99027.65
2018-12-08T02:05:39.103Z,99047.95
2018-12-08T02:07:14.263Z,99057.08
2018-12-08T02:08:49.799Z,99062.05
2018-12-08T02:10:25.718Z,99073.32
2018-12-08T02:12:02.397Z,99087.86
2018-12-08T02:13:38.364Z,99083.92
2018-12-08T02:15:15.226Z,99088.77
2018-12-08T02:16:52.183Z,99094.06
2018-12-08T02:18:29.415Z,99091.82
2018-12-08T02:20:08.069Z,99099.03
2018-12-08T02:21:44.284Z,99093.73
2018-12-08T02:23:20.428Z,99095.66
2018-12-08T02:24:56.394Z,99107.50
2018-12-08T02:26:32.364Z,99108.06
2018-12-08T02:28:08.368Z,99115.61
2018-12-08T02:29:45.947Z,99113.92
2018-12-08T02:31:22.606Z,99111.55
2018-12-08T02:33:01.265Z,99126.10
2018-12-08T02:34:36.784Z,99130.05
2018-12-08T02:36:12.912Z,99138.50
2018-12-08T02:37:49.214Z,99142.56
2018-12-08T02:39:25.595Z,99146.70
2018-12-08T02:41:01.440Z,99150.46
2018-12-08T02:42:38.024Z,99159.67
2018-12-08T02:44:14.126Z,99165.91
2018-12-08T02:45:50.433Z,99168.95
2018-12-08T02:47:27.285Z,99173.24
2018-12-08T02:49:03.969Z,99177.98
2018-12-08T02:50:39.649Z,99175.27
2018-12-08T02:52:15.137Z,99179.89
2018-12-08T02:53:54.203Z,99178.20
2018-12-08T02:55:29.678Z,99183.95
2018-12-08T02:57:06.707Z,99201.89
2018-12-08T02:58:43.411Z,99207.30
2018-12-08T03:00:22.597Z,99207.53
2018-12-08T03:01:57.973Z,99213.59
2018-12-08T03:03:33.594Z,99212.23
2018-12-08T03:05:09.647Z,99228.14
2018-12-08T03:06:46.522Z,99242.69
2018-12-08T03:08:22.011Z,99231.41
2018-12-08T03:09:57.241Z,99230.61
2018-12-08T03:11:34.482Z,99241.89
2018-12-08T03:13:09.605Z,99236.70
2018-12-08T03:14:45.166Z,99252.16
2018-12-08T03:16:20.958Z,99240.31
2018-12-08T03:17:57.097Z,99251.71
2018-12-08T03:19:32.920Z,99254.30
2018-12-08T03:21:08.187Z,99257.58
2018-12-08T03:22:44.986Z,99250.36
2018-12-08T03:24:20.803Z,99261.41
2018-12-08T03:25:55.883Z,99264.34
2018-12-08T03:27:32.487Z,99260.96
2018-12-08T03:29:09.096Z,99262.09
2018-12-08T03:30:45.586Z,99268.06
2018-12-08T03:32:21.201Z,99259.49
2018-12-08T03:33:57.353Z,99267.50
2018-12-08T03:35:32.410Z,99269.87
2018-12-08T03:37:07.602Z,99271.77
2018-12-08T03:38:43.455Z,99275.83
2018-12-08T03:40:18.850Z,99276.08
2018-12-08T03:41:54.615Z,99277.77
2018-12-08T03:43:37.568Z,99273.14
2018-12-08T03:45:19.543Z,99262.20
2018-12-08T03:47:07.568Z,99262.42
2018-12-08T03:48:42.986Z,99269.98
2018-12-08T03:50:19.236Z,99271.91
2018-12-08T03:51:54.823Z,99273.81
2018-12-08T03:53:30.279Z,99261.66
2018-12-08T03:55:06.397Z,99268.97
2018-12-08T03:56:42.179Z,99272.80
2018-12-08T03:58:18.672Z,99273.92
2018-12-08T03:59:53.854Z,99281.71
2018-12-08T04:01:29.470Z,99271.34
2018-12-08T04:03:05.378Z,99274.16
2018-12-08T04:04:44.157Z,99279.11
2018-12-08T04:06:19.447Z,99278.35
2018-12-08T04:07:54.810Z,99279.91
2018-12-08T04:09:30.067Z,99285.77
2018-12-08T04:11:07.788Z,99287.69
2018-12-08T04:12:43.219Z,99288.59
2018-12-08T04:14:19.027Z,99282.16
2018-12-08T04:15:55.084Z,99289.39
2018-12-08T04:17:30.709Z,99286.79
2018-12-08T04:19:06.282Z,99282.73
2018-12-08T04:20:41.624Z,99290.52
2018-12-08T04:22:17.223Z,99298.75
2018-12-08T04:23:52.926Z,99288.83
2018-12-08T04:25:28.822Z,99286.00
2018-12-08T04:27:04.340Z,99288.94
2018-12-08T04:28:40.635Z,99277.66
2018-12-08T04:30:17.762Z,99275.28
2018-12-08T04:31:53.318Z,99281.48
2018-12-08T04:33:30.297Z,99277.32
2018-12-08T04:35:05.994Z,99283.19
2018-12-08T04:36:41.386Z,99284.09
2018-12-08T04:38:16.989Z,99295.70
2018-12-08T04:39:52.189Z,99290.97
2018-12-08T04:41:28.077Z,99282.62
2018-12-08T04:43:04.145Z,99291.87
2018-12-08T04:44:41.117Z,99284.08
2018-12-08T04:46:16.871Z,99284.42
2018-12-08T04:47:52.502Z,99279.70
2018-12-08T04:49:28.461Z,99272.02
2018-12-08T04:51:04.274Z,99269.08
2018-12-08T04:52:39.374Z,99275.05
2018-12-08T04:54:16.160Z,99271.36
2018-12-08T04:55:51.725Z,99268.09
2018-12-08T04:57:27.167Z,99265.58
2018-12-08T04:59:03.145Z,99264.23
2018-12-08T05:00:38.906Z,99265.70
2018-12-08T05:02:14.247Z,99272.72
2018-12-08T05:03:49.543Z,99269.64
2018-12-08T05:05:25.478Z,99261.89
2018-12-08T05:07:00.923Z,99258.84
2018-12-08T05:08:39.425Z,99252.19
2018-12-08T05:10:16.009Z,99247.56
2018-12-08T05:11:51.217Z,99249.81
2018-12-08T05:13:27.558Z,99243.16
2018-12-08T05:15:05.871Z,99240.80
2018-12-08T05:16:41.422Z,99238.09
2018-12-08T05:18:17.147Z,99238.20
2018-12-08T05:19:52.932Z,99225.80
2018-12-08T05:21:28.898Z,99237.30
2018-12-08T05:23:03.994Z,99227.59
2018-12-08T05:24:40.935Z,99226.92
2018-12-08T05:26:17.070Z,99222.08
2018-12-08T05:27:53.150Z,99226.33
2018-12-08T05:29:29.502Z,99223.97
2018-12-08T05:31:05.158Z,99219.11
2018-12-08T05:32:40.242Z,99217.76
2018-12-08T05:34:15.652Z,99217.88
2018-12-08T05:35:50.779Z,99220.92
2018-12-08T05:37:26.281Z,99220.80
2018-12-08T05:39:02.335Z,99212.80
2018-12-08T05:40:37.470Z,99202.64
2018-12-08T05:42:12.757Z,99193.63
2018-12-08T05:43:49.288Z,99190.12
2018-12-08T05:45:24.653Z,99200.73
2018-12-08T05:47:00.555Z,99196.22
2018-12-08T05:48:43.364Z,99204.00
2018-12-08T05:50:18.536Z,99195.42
2018-12-08T05:51:54.445Z,99187.98
2018-12-08T05:53:29.979Z,99184.94
2018-12-08T05:55:05.419Z,99171.73
2018-12-08T05:56:40.882Z,99179.75
2018-12-08T05:58:17.222Z,99177.71
2018-12-08T05:59:52.742Z,99170.37
2018-12-08T06:01:28.777Z,99167.00
2018-12-08T06:03:04.301Z,99176.81
2018-12-08T06:04:39.413Z,99170.04
2018-12-08T06:06:14.929Z,99162.78
2018-12-08T06:07:50.423Z,99159.40
2018-12-08T06:09:26.360Z,99150.83
2018-12-08T06:11:01.740Z,99159.84
2018-12-08T06:12:47.487Z,99147.55
2018-12-08T06:14:26.309Z,99138.87
2018-12-08T06:16:24.270Z,99126.12
2018-12-08T06:17:59.790Z,99122.63
2018-12-08T06:19:35.133Z,99116.98
2018-12-08T06:21:11.910Z,99118.56
2018-12-08T06:22:47.410Z,99114.28
2018-12-08T06:24:22.766Z,99117.10
2018-12-08T06:25:59.923Z,99119.23
2018-12-08T06:28:40.681Z,99114.50
2018-12-08T06:30:17.401Z,99091.26
2018-12-08T06:31:53.855Z,99084.05
2018-12-08T06:33:29.442Z,99094.08
2018-12-08T06:35:05.546Z,99095.99
2018-12-08T06:36:41.515Z,99091.24
2018-12-08T06:38:19.083Z,99084.59
2018-12-08T06:39:54.950Z,99080.88
2018-12-08T06:41:31.751Z,99080.41
2018-12-08T06:43:07.324Z,99074.33
2018-12-08T06:44:42.563Z,99067.00
2018-12-08T06:46:18.758Z,99069.70
2018-12-08T06:47:54.332Z,99076.58
2018-12-08T06:49:29.533Z,99080.27
2018-12-08T06:51:06.398Z,99071.95
2018-12-08T06:52:43.129Z,99074.95
2018-12-08T06:54:20.623Z,99084.42
2018-12-08T06:55:56.387Z,99066.16
2018-12-08T06:57:34.677Z,99070.03
2018-12-08T06:59:12.111Z,99053.41
2018-12-08T07:00:51.491Z,99068.30
2018-12-08T07:02:26.653Z,99069.98
2018-12-08T07:04:03.193Z,99064.91
2018-12-08T07:05:39.819Z,99053.06
2018-12-08T07:07:16.785Z,99058.58
2018-12-08T07:08:52.238Z,99056.87
2018-12-08T07:10:27.385Z,99053.83
2018-12-08T07:12:03.114Z,99052.25
2018-12-08T07:13:38.562Z,99050.55
2018-12-08T07:15:15.670Z,99048.41
2018-12-08T07:16:52.738Z,99044.47
2018-12-08T07:18:27.917Z,99045.77
2018-12-08T07:20:06.966Z,99043.66
2018-12-08T07:21:43.208Z,99037.87
2018-12-08T07:23:20.466Z,99043.85
2018-12-08T07:24:56.662Z,99040.16
2018-12-08T07:26:32.741Z,99041.52
2018-12-08T07:28:08.185Z,99020.89
2018-12-08T07:29:43.558Z,99026.87
2018-12-08T07:31:19.584Z,99000.36
2018-12-08T07:32:54.739Z,99019.75
2018-12-08T07:34:30.814Z,99039.16
2018-12-08T07:36:07.534Z,99025.61
2018-12-08T07:37:47.111Z,99015.25
2018-12-08T07:39:23.406Z,99021.89
2018-12-08T07:41:01.706Z,99023.38
2018-12-08T07:42:37.091Z,99029.89
2018-12-08T07:44:13.515Z,99010.75
2018-12-08T07:45:48.624Z,99008.26
2018-12-08T07:47:28.903Z,99000.03
2018-12-08T07:49:06.289Z,99010.17
2018-12-08T07:50:43.015Z,99009.30
2018-12-08T07:52:20.217Z,99004.09
2018-12-08T07:53:55.841Z,99000.98
2018-12-08T07:55:31.996Z,99001.73
2018-12-08T07:57:08.129Z,98996.55
2018-12-08T07:58:45.693Z,98987.44
2018-12-08T08:00:26.224Z,98987.34
2018-12-08T08:02:03.133Z,98987.22
2018-12-08T08:03:39.181Z,98980.70
2018-12-08T08:05:16.765Z,98992.63
2018-12-08T08:06:52.223Z,98981.58
2018-12-08T08:08:31.855Z,98997.11
2018-12-08T08:10:10.678Z,98988.34
2018-12-08T08:11:47.331Z,98987.56
2018-12-08T08:13:22.414Z,98981.36
2018-12-08T08:14:59.585Z,98982.74
2018-12-08T08:16:37.842Z,98987.15
2018-12-08T08:18:16.717Z,98981.73
2018-12-08T08:19:52.308Z,98974.17
2018-12-08T08:21:29.163Z,98969.83
2018-12-08T08:23:07.455Z,98980.31
2018-12-08T08:24:45.724Z,98967.47
2018-12-08T08:26:23.952Z,98965.67
2018-12-08T08:28:00.904Z,98966.58
2018-12-08T08:29:38.277Z,98952.60
2018-12-08T08:31:15.209Z,98950.84
2018-12-08T08:32:56.700Z,98958.29
2018-12-08T08:34:31.943Z,98951.97
2018-12-08T08:36:07.032Z,98947.47
2018-12-08T08:37:44.489Z,98949.83
2018-12-08T08:39:21.021Z,98954.74
2018-12-08T08:40:59.190Z,98954.05
2018-12-08T08:42:40.201Z,98954.97
2018-12-08T08:44:16.143Z,98931.30
2018-12-08T08:45:56.511Z,98944.07
2018-12-08T08:47:34.550Z,98936.98
2018-12-08T08:49:14.439Z,98924.61
2018-12-08T08:50:49.867Z,98937.67
2018-12-08T08:52:26.808Z,98917.16
2018-12-08T08:54:02.233Z,98927.29
2018-12-08T08:55:44.375Z,98933.71
2018-12-08T08:57:20.710Z,98918.36
2018-12-08T08:58:58.632Z,98921.41
2018-12-08T09:00:36.467Z,98920.69
2018-12-08T09:02:14.050Z,98917.77
2018-12-08T09:03:49.967Z,98919.55
2018-12-08T09:05:27.667Z,98905.80
2018-12-08T09:07:03.710Z,98917.73
2018-12-08T09:08:40.180Z,98917.70
2018-12-08T09:10:16.465Z,98916.84
2018-12-08T09:11:52.588Z,98901.61
2018-12-08T09:13:30.589Z,98908.83
2018-12-08T09:15:13.098Z,98909.89
2018-12-08T09:16:49.760Z,98915.46
2018-12-08T09:18:27.422Z,98921.95
2018-12-08T09:20:04.141Z,98912.56
2018-12-08T09:21:40.130Z,98916.05
2018-12-08T09:23:17.111Z,98902.17
2018-12-08T09:24:53.387Z,98895.18
2018-12-08T09:26:30.023Z,98915.36
2018-12-08T09:28:06.163Z,98917.13
2018-12-08T09:29:41.460Z,98906.58
2018-12-08T09:31:17.867Z,98917.78
2018-12-08T09:32:54.377Z,98916.87
2018-12-08T09:34:30.347Z,98906.73
2018-12-08T09:36:05.963Z,98920.14
2018-12-08T09:37:42.756Z,98920.80
2018-12-08T09:39:21.432Z,98923.16
2018-12-08T09:40:58.541Z,98920.23
2018-12-08T09:42:35.368Z,98920.32
2018-12-08T09:44:11.605Z,98918.59
2018-12-08T09:45:53.614Z,98912.77
2018-12-08T09:47:29.992Z,98918.40
2018-12-08T09:49:08.996Z,98900.20
2018-12-08T09:50:44.742Z,98906.40
2018-12-08T09:52:22.116Z,98912.82
2018-12-08T09:54:00.403Z,98909.48
2018-12-08T09:55:37.516Z,98901.64
2018-12-08T09:57:14.357Z,98889.23
2018-12-08T09:58:53.950Z,98889.45
2018-12-08T10:00:32.283Z,98893.03
2018-12-08T10:02:18.968Z,98894.47
2018-12-08T10:03:56.507Z,98886.47
2018-12-08T10:05:32.853Z,98881.84
2018-12-08T10:07:09.438Z,98882.84
2018-12-08T10:08:49.024Z,98871.66
2018-12-08T10:10:32.161Z,98878.62
2018-12-08T10:12:11.633Z,98880.49
2018-12-08T10:13:52.618Z,98879.14
2018-12-08T10:15:30.423Z,98867.73
2018-12-08T10:17:09.019Z,98858.03
2018-12-08T10:18:46.546Z,98858.02
2018-12-08T10:20:22.710Z,98857.33
2018-12-08T10:22:00.440Z,98860.88
2018-12-08T10:23:38.107Z,98864.28
2018-12-08T10:25:16.324Z,98841.06
2018-12-08T10:28:32.009Z,98863.58
2018-12-08T10:30:09.387Z,98856.76
2018-12-08T10:31:46.254Z,98844.34
2018-12-08T10:33:28.201Z,98845.00
2018-12-08T10:35:03.806Z,98829.01
2018-12-08T10:36:39.398Z,98840.06
2018-12-08T10:38:16.026Z,98850.03
2018-12-08T10:39:53.590Z,98852.17
2018-12-08T10:41:29.764Z,98846.41
2018-12-08T10:43:06.853Z,98845.62
2018-12-08T10:44:42.974Z,98849.20
2018-12-08T10:46:23.451Z,98853.13
2018-12-08T10:47:58.723Z,98839.57
2018-12-08T10:49:38.642Z,98842.85
2018-12-08T10:51:14.741Z,98835.16
2018-12-08T10:52:50.551Z,98824.23
2018-12-08T10:54:27.068Z,98814.61
2018-12-08T10:56:09.075Z,98828.16
2018-12-08T10:57:44.291Z,98816.40
2018-12-08T10:59:21.062Z,98813.47
2018-12-08T11:01:01.243Z,98809.98
2018-12-08T11:02:46.107Z,98799.56
2018-12-08T11:04:22.693Z,98785.45
2018-12-08T11:06:03.295Z,98808.88
2018-12-08T11:07:45.557Z,98795.77
2018-12-08T11:09:44.018Z,98793.70
2018-12-08T11:11:20.813Z,98793.27
2018-12-08T11:12:56.594Z,98802.26
2018-12-08T11:14:33.823Z,98797.27
2018-12-08T11:16:10.188Z,98796.53
2018-12-08T11:17:46.483Z,98805.23
2018-12-08T11:19:26.006Z,98800.09
2018-12-08T11:21:05.026Z,98807.95
2018-12-08T11:22:41.922Z,98801.03
2018-12-08T11:24:18.676Z,98811.49
2018-12-08T11:25:55.595Z,98815.42
2018-12-08T11:27:33.575Z,98816.42
2018-12-08T11:29:10.373Z,98815.70
2018-12-08T11:30:48.750Z,98816.85
2018-12-08T11:32:24.094Z,98811.21
2018-12-08T11:33:59.995Z,98810.42
2018-12-08T11:35:37.702Z,98803.36
2018-12-08T11:37:14.474Z,98812.75
2018-12-08T11:38:49.629Z,98820.18
2018-12-08T11:40:27.773Z,98829.75
2018-12-08T11:42:11.454Z,98830.58
2018-12-08T11:43:48.276Z,98837.78
2018-12-08T11:45:28.579Z,98843.78
2018-12-08T11:47:04.851Z,98840.50
2018-12-08T11:48:42.773Z,98848.28
2018-12-08T11:50:18.593Z,98839.56
2018-12-08T11:51:57.536Z,98841.35
2018-12-08T11:53:52.095Z,98839.50
2018-12-08T11:55:31.804Z,98837.53
2018-12-08T11:57:10.365Z,98846.11
2018-12-08T11:58:51.140Z,98858.53
2018-12-08T12:00:37.509Z,98843.39
2018-12-08T12:02:19.000Z,98865.53
2018-12-08T12:03:56.505Z,98872.17
2018-12-08T12:05:38.289Z,98866.38
2018-12-08T12:07:14.802Z,98870.45
2018-12-08T12:08:52.127Z,98867.17
2018-12-08T12:10:29.531Z,98874.20
2018-12-08T12:12:09.496Z,98880.64
2018-12-08T12:13:45.790Z,98869.73
2018-12-08T12:15:25.013Z,98871.31
2018-12-08T12:17:02.250Z,98857.31
2018-12-08T12:18:40.073Z,98870.53
2018-12-08T12:20:16.267Z,98865.50
2018-12-08T12:21:57.342Z,98870.70
2018-12-08T12:23:35.799Z,98867.06
2018-12-08T12:25:16.635Z,98875.85
2018-12-08T12:26:57.499Z,98882.42
2018-12-08T12:28:33.079Z,98893.49
2018-12-08T12:30:13.678Z,98879.56
2018-12-08T12:31:51.291Z,98891.20
2018-12-08T12:33:28.255Z,98889.06
2018-12-08T12:35:05.867Z,98896.14
2018-12-08T12:36:41.692Z,98899.99
2018-12-08T12:38:19.013Z,98910.85
2018-12-08T12:39:56.065Z,98895.34
2018-12-08T12:41:32.176Z,98898.06
2018-12-08T12:43:07.476Z,98913.61
2018-12-08T12:44:45.470Z,98927.39
2018-12-08T12:46:21.044Z,98923.53
2018-12-08T12:47:56.872Z,98933.67
2018-12-08T12:49:33.028Z,98935.82
2018-12-08T12:51:10.513Z,98934.32
2018-12-08T12:52:48.126Z,98940.97
2018-12-08T12:54:23.622Z,98921.46
2018-12-08T12:55:59.166Z,98944.97
2018-12-08T12:57:34.908Z,98953.75
2018-12-08T12:59:10.997Z,98952.97
2018-12-08T13:00:48.396Z,98956.18
2018-12-08T13:02:23.701Z,98951.33
2018-12-08T13:04:01.572Z,98952.61
2018-12-08T13:05:37.403Z,98942.11
2018-12-08T13:07:13.071Z,98955.89
2018-12-08T13:08:48.956Z,98962.33
2018-12-08T13:10:24.408Z,98955.68
2018-12-08T13:12:00.749Z,98954.89
2018-12-08T13:13:39.081Z,98949.06
2018-12-08T13:15:16.739Z,98958.18
2018-12-08T13:16:53.037Z,98949.28
2018-12-08T13:18:28.383Z,98945.61
2018-12-08T13:20:04.119Z,98965.25
2018-12-08T13:21:39.318Z,98957.89
2018-12-08T13:23:16.626Z,98962.40
2018-12-08T13:24:52.219Z,98953.69
2018-12-08T13:26:30.663Z,98964.23
2018-12-08T13:28:07.119Z,98945.18
2018-12-08T13:29:46.132Z,98956.08
2018-12-08T13:31:25.185Z,98960.55
2018-12-08T13:33:02.528Z,98968.11
2018-12-08T13:34:41.464Z,98975.95
2018-12-08T13:36:18.438Z,98986.38
2018-12-08T13:37:54.052Z,98980.37
2018-12-08T13:39:29.682Z,98976.95
2018-12-08T13:41:05.576Z,98979.45
2018-12-08T13:42:42.388Z,98989.95
2018-12-08T13:44:29.119Z,98980.23
2018-12-08T13:46:04.484Z,98983.95
2018-12-08T13:47:40.998Z,98985.52
2018-12-08T13:49:16.141Z,98967.59
2018-12-08T13:50:51.940Z,98972.23
2018-12-08T13:52:28.334Z,98970.09
2018-12-08T13:54:06.377Z,98969.73
2018-12-08T13:55:42.500Z,98973.45
2018-12-08T13:58:28.408Z,98974.88
2018-12-08T14:00:05.781Z,98948.66
2018-12-08T14:01:42.454Z,98981.23
2018-12-08T14:03:19.409Z,98968.02
2018-12-08T14:04:55.539Z,98973.16
2018-12-08T14:06:30.784Z,98974.73
2018-12-08T14:08:07.675Z,98961.44
2018-12-08T14:09:44.350Z,98962.38
2018-12-08T14:11:21.564Z,98969.02
2018-12-08T14:12:57.196Z,98965.16
2018-12-08T14:14:36.235Z,98965.95
2018-12-08T14:16:11.733Z,98964.94
2018-12-08T14:17:50.152Z,98952.16
2018-12-08T14:19:27.235Z,98954.30
2018-12-08T14:21:02.411Z,98960.30
2018-12-08T14:22:38.555Z,98955.87
2018-12-08T14:24:13.754Z,98955.02
2018-12-08T14:25:50.991Z,98959.52
2018-12-08T14:27:27.690Z,98951.72
2018-12-08T14:29:04.378Z,98953.66
2018-12-08T14:30:39.932Z,98956.59
2018-12-08T14:32:16.087Z,98943.80
2018-12-08T14:33:51.602Z,98946.36
2018-12-08T14:35:26.923Z,98958.02
2018-12-08T14:37:02.114Z,98948.72
2018-12-08T14:38:37.182Z,98940.72
2018-12-08T14:40:14.210Z,98938.79
2018-12-08T14:41:49.471Z,98939.58
2018-12-08T14:43:24.513Z,98934.72
2018-12-08T14:45:00.102Z,98930.64
2018-12-08T14:46:35.837Z,98919.78
2018-12-08T14:48:11.403Z,98918.64
2018-12-08T14:49:48.891Z,98915.56
2018-12-08T14:51:24.654Z,98917.50
2018-12-08T14:52:59.783Z,98911.28
2018-12-08T14:54:35.369Z,98907.41
2018-12-08T14:56:10.781Z,98912.63
2018-12-08T14:57:47.015Z,98909.92
2018-12-08T14:59:22.161Z,98918.64
2018-12-08T15:00:58.708Z,98933.22
2018-12-08T15:02:34.808Z,98923.32
2018-12-08T15:04:10.306Z,98920.82
2018-12-08T15:05:45.647Z,98915.78
2018-12-08T15:07:22.132Z,98921.03
2018-12-08T15:08:59.163Z,98916.75
2018-12-08T15:10:35.105Z,98927.82
2018-12-08T15:12:11.120Z,98927.82
2018-12-08T15:13:48.366Z,98933.25
2018-12-08T15:15:25.691Z,98934.25
2018-12-08T15:17:01.605Z,98938.69
2018-12-08T15:18:37.838Z,98942.61
2018-12-08T15:20:14.538Z,98937.54
2018-12-08T15:21:51.660Z,98939.47
2018-12-08T15:23:29.239Z,98941.61
2018-12-08T15:25:06.032Z,98939.90
2018-12-08T15:26:43.147Z,98944.91
2018-12-08T15:28:20.174Z,98944.19
2018-12-08T15:29:57.235Z,98954.69
2018-12-08T15:31:35.985Z,98952.97
2018-12-08T15:33:14.026Z,98952.55
2018-12-08T15:34:51.293Z,98955.69
2018-12-08T15:36:26.503Z,98943.40
2018-12-08T15:38:01.924Z,98947.69
2018-12-08T15:39:37.933Z,98936.61
2018-12-08T15:41:13.297Z,98936.61
2018-12-08T15:42:49.162Z,98937.75
2018-12-08T15:44:24.946Z,98939.54
2018-12-08T15:46:04.871Z,98933.47
2018-12-08T15:47:42.147Z,98920.99
2018-12-08T15:49:20.192Z,98926.64
2018-12-08T15:50:57.661Z,98926.83
2018-12-08T15:52:34.182Z,98942.19
2018-12-08T15:54:11.407Z,98938.26
2018-12-08T15:55:48.768Z,98945.69
2018-12-08T15:57:24.649Z,98941.41
2018-12-08T15:59:07.443Z,98953.91
2018-12-08T16:00:46.453Z,98950.26
2018-12-08T16:02:24.576Z,98954.55
2018-12-08T16:03:59.818Z,98961.69
2018-12-08T16:05:36.085Z,98977.06
2018-12-08T16:07:17.402Z,98983.89
2018-12-08T16:08:53.720Z,98968.91
2018-12-08T16:10:30.189Z,98985.25
2018-12-08T16:12:06.422Z,98987.96
2018-12-08T16:13:43.636Z,98997.90
2018-12-08T16:15:23.805Z,98994.93
2018-12-08T16:18:45.057Z,98976.62
2018-12-08T16:20:25.433Z,98981.49
2018-12-08T16:22:02.582Z,98982.49
2018-12-08T16:23:43.793Z,98978.77
2018-12-08T16:25:21.798Z,98972.34
2018-12-08T16:27:01.578Z,98973.98
2018-12-08T16:28:40.302Z,98971.20
2018-12-08T16:30:18.260Z,98962.05
2018-12-08T16:31:55.780Z,98951.27
2018-12-08T16:33:34.407Z,98950.33
2018-12-08T16:35:15.118Z,98943.19
2018-12-08T16:36:53.663Z,98951.55
2018-12-08T16:38:32.425Z,98944.76
2018-12-08T16:40:10.919Z,98944.83
2018-12-08T16:41:47.635Z,98941.69
2018-12-08T16:43:24.174Z,98942.47
2018-12-08T16:45:01.653Z,98937.89
2018-12-08T16:46:40.404Z,98926.59
2018-12-08T16:48:20.542Z,98927.42
2018-12-08T16:49:56.513Z,98922.95
2018-12-08T16:51:33.366Z,98923.92
2018-12-08T16:53:13.791Z,98916.95
2018-12-08T16:54:52.302Z,98908.98
2018-12-08T16:56:28.631Z,98910.19
2018-12-08T16:58:04.104Z,98917.05
2018-12-08T16:59:39.785Z,98916.41
2018-12-08T17:01:16.725Z,98905.61
2018-12-08T17:02:54.113Z,98906.75
2018-12-08T17:04:31.336Z,98908.33
2018-12-08T17:06:09.783Z,98896.67
2018-12-08T17:07:48.524Z,98897.09
2018-12-08T17:09:25.778Z,98890.67
2018-12-08T17:11:03.509Z,98883.88
2018-12-08T17:12:38.581Z,98881.16
2018-12-08T17:14:15.580Z,98886.66
2018-12-08T17:15:51.751Z,98884.52
2018-12-08T17:17:27.322Z,98879.11
2018-12-08T17:19:05.420Z,98872.29
2018-12-08T17:20:44.145Z,98867.46
2018-12-08T17:22:21.816Z,98861.00
2018-12-08T17:23:58.712Z,98865.86
2018-12-08T17:25:34.762Z,98861.22
2018-12-08T17:27:13.062Z,98868.09
2018-12-08T17:28:49.197Z,98860.09
2018-12-08T17:30:26.493Z,98861.27
2018-12-08T17:32:02.052Z,98856.02
2018-12-08T17:33:37.901Z,98854.06
2018-12-08T17:35:17.155Z,98843.98
2018-12-08T17:36:53.008Z,98838.18
2018-12-08T17:38:29.186Z,98823.18
2018-12-08T17:40:05.886Z,98814.82
2018-12-08T17:41:42.485Z,98802.54
2018-12-08T17:43:17.998Z,98800.81
2018-12-08T17:44:53.542Z,98789.95
2018-12-08T17:46:30.761Z,98772.09
2018-12-08T17:48:07.937Z,98757.48
2018-12-08T17:49:44.746Z,98749.36
2018-12-08T17:51:21.532Z,98740.48
2018-12-08T17:52:59.296Z,98728.05
2018-12-08T17:54:36.288Z,98709.34
2018-12-08T17:56:12.062Z,98706.63
2018-12-08T17:57:50.681Z,98701.62
2018-12-08T17:59:27.357Z,98682.19
2018-12-08T18:01:04.058Z,98671.53
2018-12-08T18:02:40.265Z,98666.52
2018-12-08T18:04:17.889Z,98651.42
2018-12-08T18:05:55.850Z,98646.56
2018-12-08T18:07:34.938Z,98640.40
2018-12-08T18:09:14.312Z,98641.91
2018-12-08T18:10:50.041Z,98632.62
2018-12-08T18:12:28.449Z,98618.46
2018-12-08T18:14:06.598Z,98608.75
2018-12-08T18:15:44.802Z,98600.23
2018-12-08T18:17:21.673Z,98578.70
2018-12-08T18:19:00.161Z,98577.57
2018-12-08T18:22:23.552Z,98557.98
2018-12-08T18:23:59.758Z,98553.52
2018-12-08T18:25:37.089Z,98545.16
2018-12-08T18:27:12.805Z,98544.38
2018-12-08T18:28:52.206Z,98522.08
2018-12-08T18:30:32.175Z,98526.38
2018-12-08T18:32:10.714Z,98502.08
2018-12-08T18:33:46.091Z,98494.54
2018-12-08T18:35:21.813Z,98470.27
2018-12-08T18:37:09.919Z,98478.99
2018-12-08T18:38:50.647Z,98464.84
2018-12-08T18:40:32.652Z,98456.69
2018-12-08T18:42:14.813Z,98450.88
2018-12-08T18:45:50.794Z,98434.00
2018-12-08T18:47:27.676Z,98429.52
2018-12-08T18:49:06.635Z,98425.06
2018-12-08T18:50:46.699Z,98419.97
2018-12-08T18:52:23.604Z,98413.02
2018-12-08T18:54:03.783Z,98411.86
2018-12-08T18:55:40.094Z,98398.28
2018-12-08T18:59:01.646Z,98380.25
2018-12-08T19:00:38.959Z,98374.61
2018-12-08T19:02:17.694Z,98381.20
2018-12-08T19:03:58.203Z,98371.12
2018-12-08T19:05:33.487Z,98360.83
2018-12-08T19:07:10.811Z,98367.45
2018-12-08T19:08:46.781Z,98358.89
2018-12-08T19:10:25.167Z,98368.61
2018-12-08T19:12:01.722Z,98350.17
2018-12-08T19:13:40.418Z,98348.61